createdAt,value
2022-11-28T00:00:34.134Z,1012.24
2022-11-28T00:01:34.198Z,1012.20
2022-11-28T00:02:34.261Z,1012.20
2022-11-28T00:03:34.164Z,1012.20
2022-11-28T00:04:34.156Z,1012.18
2022-11-28T00:05:34.145Z,1012.13
2022-11-28T00:06:34.155Z,1012.16
2022-11-28T00:07:34.168Z,1012.15
2022-11-28T00:08:34.269Z,1012.12
2022-11-28T00:09:34.157Z,1012.14
2022-11-28T00:10:34.165Z,1012.13
2022-11-28T00:11:34.169Z,1012.10
2022-11-28T00:12:34.163Z,1012.12
2022-11-28T00:13:34.179Z,1012.11
2022-11-28T00:14:34.174Z,1012.09
2022-11-28T00:15:34.229Z,1012.11
2022-11-28T00:16:34.357Z,1012.11
2022-11-28T00:17:34.177Z,1012.12
2022-11-28T00:18:34.181Z,1012.10
2022-11-28T00:19:34.191Z,1012.09
2022-11-28T00:20:34.192Z,1012.04
2022-11-28T00:21:34.196Z,1012.02
2022-11-28T00:22:34.196Z,1012.00
2022-11-28T00:23:34.203Z,1011.99
2022-11-28T00:24:34.316Z,1011.99
2022-11-28T00:25:34.198Z,1012.00
2022-11-28T00:26:34.209Z,1012.00
2022-11-28T00:27:34.210Z,1011.96
2022-11-28T00:28:34.215Z,1011.96
2022-11-28T00:29:34.208Z,1012.00
2022-11-28T00:30:34.231Z,1011.96
2022-11-28T00:31:34.264Z,1011.95
2022-11-28T00:32:34.220Z,1011.96
2022-11-28T00:33:34.219Z,1011.97
2022-11-28T00:34:34.224Z,1011.98
2022-11-28T00:35:34.224Z,1011.99
2022-11-28T00:36:34.229Z,1012.02
2022-11-28T00:37:34.235Z,1012.04
2022-11-28T00:38:34.241Z,1012.01
2022-11-28T00:39:34.235Z,1011.99
2022-11-28T00:40:34.365Z,1012.05
2022-11-28T00:41:34.243Z,1011.96
2022-11-28T00:42:34.252Z,1012.00
2022-11-28T00:43:34.248Z,1011.97
2022-11-28T00:44:34.249Z,1011.93
2022-11-28T00:45:34.356Z,1011.88
2022-11-28T00:46:34.253Z,1011.92
2022-11-28T00:47:34.257Z,1011.91
2022-11-28T00:48:34.265Z,1011.84
2022-11-28T00:49:34.275Z,1011.83
2022-11-28T00:50:34.264Z,1011.84
2022-11-28T00:51:34.275Z,1011.83
2022-11-28T00:52:34.271Z,1011.84
2022-11-28T00:53:34.285Z,1011.83
2022-11-28T00:54:34.282Z,1011.79
2022-11-28T00:55:34.279Z,1011.83
2022-11-28T00:56:34.401Z,1011.80
2022-11-28T00:57:34.284Z,1011.82
2022-11-28T00:58:34.287Z,1011.81
2022-11-28T00:59:34.296Z,1011.76
2022-11-28T01:00:34.301Z,1011.74
2022-11-28T01:01:34.415Z,1011.73
2022-11-28T01:02:34.346Z,1011.69
2022-11-28T01:03:34.299Z,1011.67
2022-11-28T01:04:34.317Z,1011.68
2022-11-28T01:05:34.304Z,1011.68
2022-11-28T01:06:34.309Z,1011.72
2022-11-28T01:07:34.384Z,1011.72
2022-11-28T01:08:34.315Z,1011.77
2022-11-28T01:09:34.316Z,1011.75
2022-11-28T01:10:34.327Z,1011.69
2022-11-28T01:11:34.339Z,1011.77
2022-11-28T01:12:34.446Z,1011.66
2022-11-28T01:13:34.334Z,1011.71
2022-11-28T01:14:34.331Z,1011.69
2022-11-28T01:15:34.341Z,1011.67
2022-11-28T01:16:34.416Z,1011.66
2022-11-28T01:17:34.348Z,1011.63
2022-11-28T01:18:34.349Z,1011.65
2022-11-28T01:19:34.357Z,1011.58
2022-11-28T01:20:34.353Z,1011.60
2022-11-28T01:21:34.352Z,1011.60
2022-11-28T01:22:34.358Z,1011.69
2022-11-28T01:23:34.363Z,1011.68
2022-11-28T01:24:34.359Z,1011.61
2022-11-28T01:25:34.366Z,1011.58
2022-11-28T01:26:34.363Z,1011.61
2022-11-28T01:27:34.371Z,1011.61
2022-11-28T01:28:34.489Z,1011.54
2022-11-28T01:29:34.370Z,1011.59
2022-11-28T01:30:34.375Z,1011.55
2022-11-28T01:31:34.447Z,1011.54
2022-11-28T01:32:34.380Z,1011.49
2022-11-28T01:33:34.380Z,1011.52
2022-11-28T01:34:34.392Z,1011.52
2022-11-28T01:35:34.393Z,1011.55
2022-11-28T01:36:34.389Z,1011.53
2022-11-28T01:37:34.397Z,1011.52
2022-11-28T01:38:34.394Z,1011.48
2022-11-28T01:39:34.396Z,1011.44
2022-11-28T01:40:34.399Z,1011.49
2022-11-28T01:41:34.402Z,1011.45
2022-11-28T01:42:34.404Z,1011.42
2022-11-28T01:43:34.414Z,1011.42
2022-11-28T01:44:34.532Z,1011.40
2022-11-28T01:45:34.420Z,1011.39
2022-11-28T01:46:34.499Z,1011.38
2022-11-28T01:47:34.425Z,1011.28
2022-11-28T01:48:34.426Z,1011.35
2022-11-28T01:49:34.429Z,1011.30
2022-11-28T01:50:34.432Z,1011.27
2022-11-28T01:51:34.429Z,1011.34
2022-11-28T01:52:34.428Z,1011.22
2022-11-28T01:53:34.433Z,1011.19
2022-11-28T01:54:34.434Z,1011.25
2022-11-28T01:55:34.438Z,1011.21
2022-11-28T01:56:34.447Z,1011.21
2022-11-28T01:57:34.450Z,1011.27
2022-11-28T01:58:34.446Z,1011.21
2022-11-28T01:59:34.450Z,1011.19
2022-11-28T02:00:34.701Z,1011.17
2022-11-28T02:01:34.463Z,1011.12
2022-11-28T02:02:34.580Z,1011.10
2022-11-28T02:03:34.467Z,1011.07
2022-11-28T02:04:34.463Z,1011.08
2022-11-28T02:05:34.461Z,1011.06
2022-11-28T02:06:34.473Z,1010.99
2022-11-28T02:07:34.560Z,1011.00
2022-11-28T02:08:34.479Z,1011.00
2022-11-28T02:09:34.478Z,1010.94
2022-11-28T02:10:34.483Z,1010.87
2022-11-28T02:11:34.477Z,1010.89
2022-11-28T02:12:34.488Z,1010.82
2022-11-28T02:13:34.481Z,1010.75
2022-11-28T02:14:34.493Z,1010.73
2022-11-28T02:15:34.487Z,1010.72
2022-11-28T02:16:34.721Z,1010.68
2022-11-28T02:17:34.500Z,1010.62
2022-11-28T02:18:34.494Z,1010.58
2022-11-28T02:19:34.499Z,1010.56
2022-11-28T02:20:34.506Z,1010.59
2022-11-28T02:21:34.504Z,1010.54
2022-11-28T02:22:34.513Z,1010.56
2022-11-28T02:23:34.507Z,1010.55
2022-11-28T02:24:34.515Z,1010.52
2022-11-28T02:25:34.521Z,1010.49
2022-11-28T02:26:34.520Z,1010.45
2022-11-28T02:27:34.522Z,1010.49
2022-11-28T02:28:34.520Z,1010.47
2022-11-28T02:29:34.531Z,1010.45
2022-11-28T02:30:34.531Z,1010.48
2022-11-28T02:31:34.598Z,1010.46
2022-11-28T02:32:34.651Z,1010.38
2022-11-28T02:33:34.538Z,1010.39
2022-11-28T02:34:34.534Z,1010.41
2022-11-28T02:35:34.545Z,1010.43
2022-11-28T02:36:34.541Z,1010.36
2022-11-28T02:37:34.547Z,1010.36
2022-11-28T02:38:34.553Z,1010.35
2022-11-28T02:39:34.552Z,1010.35
2022-11-28T02:40:34.557Z,1010.37
2022-11-28T02:41:34.549Z,1010.35
2022-11-28T02:42:34.560Z,1010.32
2022-11-28T02:43:34.577Z,1010.33
2022-11-28T02:44:34.558Z,1010.31
2022-11-28T02:45:34.566Z,1010.31
2022-11-28T02:46:34.645Z,1010.31
2022-11-28T02:47:34.571Z,1010.32
2022-11-28T02:48:34.697Z,1010.29
2022-11-28T02:49:34.568Z,1010.31
2022-11-28T02:50:34.578Z,1010.29
2022-11-28T02:51:34.578Z,1010.30
2022-11-28T02:52:34.575Z,1010.29
2022-11-28T02:53:34.581Z,1010.27
2022-11-28T02:54:34.588Z,1010.27
2022-11-28T02:55:34.597Z,1010.29
2022-11-28T02:56:34.593Z,1010.27
2022-11-28T02:57:34.591Z,1010.27
2022-11-28T02:58:34.590Z,1010.26
2022-11-28T02:59:34.602Z,1010.35
2022-11-28T03:00:34.670Z,1010.18
2022-11-28T03:01:34.662Z,1010.22
2022-11-28T03:02:34.683Z,1010.24
2022-11-28T03:03:34.611Z,1010.20
2022-11-28T03:04:34.730Z,1010.24
2022-11-28T03:05:34.615Z,1010.20
2022-11-28T03:06:34.616Z,1010.14
2022-11-28T03:07:34.696Z,1010.14
2022-11-28T03:08:34.615Z,1010.12
2022-11-28T03:09:34.623Z,1010.13
2022-11-28T03:10:34.619Z,1010.14
2022-11-28T03:11:34.625Z,1010.07
2022-11-28T03:12:34.627Z,1010.17
2022-11-28T03:13:34.627Z,1010.08
2022-11-28T03:14:34.635Z,1010.12
2022-11-28T03:15:34.632Z,1010.08
2022-11-28T03:16:34.708Z,1010.08
2022-11-28T03:17:34.636Z,1010.13
2022-11-28T03:18:34.644Z,1010.15
2022-11-28T03:19:34.650Z,1010.16
2022-11-28T03:20:34.758Z,1010.08
2022-11-28T03:21:34.652Z,1010.12
2022-11-28T03:22:34.647Z,1010.14
2022-11-28T03:23:34.654Z,1010.14
2022-11-28T03:24:34.652Z,1010.12
2022-11-28T03:25:34.653Z,1010.09
2022-11-28T03:26:34.665Z,1010.10
2022-11-28T03:27:34.669Z,1010.04
2022-11-28T03:28:37.113Z,1010.02
2022-11-28T03:29:34.668Z,1010.04
2022-11-28T03:30:34.694Z,1009.98
2022-11-28T03:31:34.738Z,1010.01
2022-11-28T03:32:34.678Z,1009.97
2022-11-28T03:33:34.678Z,1010.02
2022-11-28T03:34:34.676Z,1009.92
2022-11-28T03:35:34.676Z,1009.94
2022-11-28T03:36:35.093Z,1009.94
2022-11-28T03:37:34.680Z,1009.94
2022-11-28T03:38:34.684Z,1009.92
2022-11-28T03:39:34.694Z,1009.92
2022-11-28T03:40:34.696Z,1009.94
2022-11-28T03:41:34.697Z,1009.93
2022-11-28T03:42:34.692Z,1009.92
2022-11-28T03:43:34.699Z,1010.03
2022-11-28T03:44:34.704Z,1009.99
2022-11-28T03:45:34.699Z,1010.00
2022-11-28T03:46:34.787Z,1009.97
2022-11-28T03:47:34.704Z,1010.02
2022-11-28T03:48:34.705Z,1010.02
2022-11-28T03:49:34.710Z,1010.03
2022-11-28T03:50:34.717Z,1010.08
2022-11-28T03:51:34.723Z,1010.10
2022-11-28T03:52:34.840Z,1010.11
2022-11-28T03:53:34.725Z,1010.14
2022-11-28T03:54:34.725Z,1010.23
2022-11-28T03:55:34.833Z,1010.36
2022-11-28T03:56:34.723Z,1010.35
2022-11-28T03:57:34.728Z,1010.39
2022-11-28T03:59:27.287Z,1010.31
2022-11-28T04:00:27.291Z,1010.34
2022-11-28T04:01:27.373Z,1010.33
2022-11-28T04:02:27.292Z,1010.34
2022-11-28T04:03:27.431Z,1010.33
2022-11-28T04:04:27.297Z,1010.33
2022-11-28T04:05:27.311Z,1010.36
2022-11-28T04:06:27.308Z,1010.43
2022-11-28T04:07:27.424Z,1010.52
2022-11-28T04:08:27.421Z,1010.52
2022-11-28T04:09:27.318Z,1010.48
2022-11-28T04:10:27.317Z,1010.53
2022-11-28T04:11:27.322Z,1010.49
2022-11-28T04:12:27.322Z,1010.46
2022-11-28T04:13:27.327Z,1010.55
2022-11-28T04:14:27.320Z,1010.49
2022-11-28T04:15:27.323Z,1010.47
2022-11-28T04:16:27.411Z,1010.42
2022-11-28T04:17:27.328Z,1010.48
2022-11-28T04:19:44.945Z,1010.48
2022-11-28T04:20:44.938Z,1010.51
2022-11-28T04:21:44.946Z,1010.42
2022-11-28T04:22:44.949Z,1010.40
2022-11-28T04:23:45.062Z,1010.42
2022-11-28T04:24:45.126Z,1010.42
2022-11-28T04:25:44.958Z,1010.33
2022-11-28T04:26:44.951Z,1010.38
2022-11-28T04:27:44.962Z,1010.27
2022-11-28T04:28:44.955Z,1010.31
2022-11-28T04:29:44.968Z,1010.32
2022-11-28T04:30:44.961Z,1010.30
2022-11-28T04:31:45.067Z,1010.30
2022-11-28T04:32:44.966Z,1010.25
2022-11-28T04:33:44.977Z,1010.28
2022-11-28T04:34:45.275Z,1010.23
2022-11-28T04:35:44.978Z,1010.24
2022-11-28T04:36:44.975Z,1010.21
2022-11-28T04:37:44.984Z,1010.26
2022-11-28T04:38:44.979Z,1010.24
2022-11-28T04:39:45.099Z,1010.17
2022-11-28T04:40:44.993Z,1010.09
2022-11-28T04:41:44.985Z,1010.07
2022-11-28T04:42:47.598Z,1010.05
2022-11-28T04:43:44.991Z,1010.07
2022-11-28T04:44:45.272Z,1009.96
2022-11-28T04:45:45.099Z,1009.94
2022-11-28T04:46:45.005Z,1009.87
2022-11-28T04:47:45.005Z,1009.86
2022-11-28T04:48:45.004Z,1009.87
2022-11-28T04:49:45.010Z,1009.75
2022-11-28T04:50:45.006Z,1009.81
2022-11-28T04:51:45.017Z,1009.81
2022-11-28T04:52:45.010Z,1009.82
2022-11-28T04:53:45.021Z,1009.77
2022-11-28T04:54:45.234Z,1009.82
2022-11-28T04:55:45.138Z,1009.87
2022-11-28T04:56:45.019Z,1009.85
2022-11-28T04:57:45.030Z,1009.87
2022-11-28T04:58:45.039Z,1009.88
2022-11-28T04:59:45.036Z,1009.88
2022-11-28T05:00:45.133Z,1009.87
2022-11-28T05:01:45.097Z,1009.87
2022-11-28T05:02:45.039Z,1009.90
2022-11-28T05:03:45.036Z,1009.90
2022-11-28T05:04:45.286Z,1009.95
2022-11-28T05:05:45.044Z,1009.95
2022-11-28T05:06:45.041Z,1009.94
2022-11-28T05:07:45.140Z,1009.92
2022-11-28T05:08:45.051Z,1009.95
2022-11-28T05:09:45.048Z,1009.88
2022-11-28T05:10:45.059Z,1009.88
2022-11-28T05:11:45.166Z,1009.90
2022-11-28T05:12:45.073Z,1009.89
2022-11-28T05:13:45.072Z,1009.88
2022-11-28T05:14:45.128Z,1009.90
2022-11-28T05:15:45.067Z,1009.90
2022-11-28T05:16:45.169Z,1009.88
2022-11-28T05:17:45.073Z,1009.89
2022-11-28T05:18:45.081Z,1009.89
2022-11-28T05:19:45.071Z,1009.92
2022-11-28T05:20:45.080Z,1009.92
2022-11-28T05:21:45.079Z,1009.90
2022-11-28T05:22:45.090Z,1009.92
2022-11-28T05:23:45.081Z,1009.88
2022-11-28T05:24:45.418Z,1009.94
2022-11-28T05:25:45.086Z,1009.91
2022-11-28T05:26:45.085Z,1009.88
2022-11-28T05:27:45.209Z,1009.84
2022-11-28T05:28:45.090Z,1009.88
2022-11-28T05:29:51.759Z,1009.81
2022-11-28T05:30:45.101Z,1009.79
2022-11-28T05:31:45.177Z,1009.83
2022-11-28T05:32:45.106Z,1009.76
2022-11-28T05:33:45.106Z,1009.82
2022-11-28T05:34:45.110Z,1009.68
2022-11-28T05:35:45.114Z,1009.77
2022-11-28T05:36:45.117Z,1009.82
2022-11-28T05:37:45.122Z,1009.78
2022-11-28T05:38:45.121Z,1009.79
2022-11-28T05:39:45.439Z,1009.82
2022-11-28T05:40:45.117Z,1009.77
2022-11-28T05:41:45.128Z,1009.81
2022-11-28T05:42:45.213Z,1009.77
2022-11-28T05:43:45.239Z,1009.77
2022-11-28T05:44:45.127Z,1009.78
2022-11-28T05:45:45.226Z,1009.80
2022-11-28T05:46:45.132Z,1009.79
2022-11-28T05:47:45.171Z,1009.77
2022-11-28T05:48:45.145Z,1009.76
2022-11-28T05:49:45.369Z,1009.72
2022-11-28T05:50:45.140Z,1009.74
2022-11-28T05:51:45.148Z,1009.70
2022-11-28T05:52:45.144Z,1009.68
2022-11-28T05:53:45.146Z,1009.67
2022-11-28T05:54:45.150Z,1009.64
2022-11-28T05:55:45.156Z,1009.66
2022-11-28T05:56:45.153Z,1009.68
2022-11-28T05:57:45.154Z,1009.67
2022-11-28T05:58:45.167Z,1009.63
2022-11-28T05:59:45.494Z,1009.61
2022-11-28T06:00:45.161Z,1009.56
2022-11-28T06:01:45.229Z,1009.57
2022-11-28T06:02:45.166Z,1009.57
2022-11-28T06:03:45.177Z,1009.57
2022-11-28T06:04:45.276Z,1009.51
2022-11-28T06:05:45.326Z,1009.52
2022-11-28T06:06:45.196Z,1009.51
2022-11-28T06:07:45.278Z,1009.49
2022-11-28T06:08:45.180Z,1009.54
2022-11-28T06:09:45.525Z,1009.51
2022-11-28T06:10:45.181Z,1009.53
2022-11-28T06:11:45.194Z,1009.54
2022-11-28T06:12:45.187Z,1009.55
2022-11-28T06:13:45.191Z,1009.54
2022-11-28T06:14:45.191Z,1009.54
2022-11-28T06:15:45.314Z,1009.53
2022-11-28T06:16:45.288Z,1009.52
2022-11-28T06:17:45.204Z,1009.53
2022-11-28T06:18:45.199Z,1009.51
2022-11-28T06:19:45.405Z,1009.51
2022-11-28T06:20:45.207Z,1009.46
2022-11-28T06:21:45.206Z,1009.49
2022-11-28T06:22:45.208Z,1009.47
2022-11-28T06:23:45.212Z,1009.46
2022-11-28T06:24:45.222Z,1009.40
2022-11-28T06:25:45.214Z,1009.41
2022-11-28T06:26:45.228Z,1009.40
2022-11-28T06:27:45.227Z,1009.33
2022-11-28T06:28:45.230Z,1009.37
2022-11-28T06:29:45.403Z,1009.29
2022-11-28T06:30:45.227Z,1009.32
2022-11-28T06:31:45.445Z,1009.24
2022-11-28T06:32:45.239Z,1009.27
2022-11-28T06:33:45.239Z,1009.24
2022-11-28T06:34:45.248Z,1009.29
2022-11-28T06:35:45.247Z,1009.29
2022-11-28T06:36:45.255Z,1009.23
2022-11-28T06:37:45.246Z,1009.25
2022-11-28T06:38:45.249Z,1009.25
2022-11-28T06:39:45.282Z,1009.28
2022-11-28T06:40:45.250Z,1009.28
2022-11-28T06:41:45.249Z,1009.21
2022-11-28T06:42:45.253Z,1009.24
2022-11-28T06:43:45.261Z,1009.29
2022-11-28T06:44:45.263Z,1009.25
2022-11-28T06:45:45.291Z,1009.23
2022-11-28T06:46:45.260Z,1009.26
2022-11-28T06:47:45.379Z,1009.25
2022-11-28T06:48:45.274Z,1009.29
2022-11-28T06:49:45.519Z,1009.29
2022-11-28T06:50:45.275Z,1009.24
2022-11-28T06:51:45.276Z,1009.28
2022-11-28T06:52:45.280Z,1009.28
2022-11-28T06:53:45.276Z,1009.27
2022-11-28T06:54:45.276Z,1009.26
2022-11-28T06:55:45.281Z,1009.28
2022-11-28T06:56:45.286Z,1009.28
2022-11-28T06:57:45.284Z,1009.26
2022-11-28T06:58:45.303Z,1009.30
2022-11-28T06:59:45.452Z,1009.32
2022-11-28T07:00:45.367Z,1009.34
2022-11-28T07:01:45.514Z,1009.29
2022-11-28T07:02:45.346Z,1009.31
2022-11-28T07:03:45.418Z,1009.31
2022-11-28T07:04:45.307Z,1009.33
2022-11-28T07:05:45.300Z,1009.27
2022-11-28T07:06:45.299Z,1009.33
2022-11-28T07:07:53.728Z,1009.32
2022-11-28T07:08:45.311Z,1009.34
2022-11-28T07:09:45.695Z,1009.32
2022-11-28T07:10:45.317Z,1009.27
2022-11-28T07:11:45.311Z,1009.25
2022-11-28T07:12:45.314Z,1009.22
2022-11-28T07:13:45.315Z,1009.17
2022-11-28T07:14:45.318Z,1009.21
2022-11-28T07:15:45.320Z,1009.20
2022-11-28T07:16:45.356Z,1009.19
2022-11-28T07:17:45.331Z,1009.19
2022-11-28T07:18:45.326Z,1009.14
2022-11-28T07:19:48.235Z,1009.17
2022-11-28T07:20:45.330Z,1009.15
2022-11-28T07:21:45.338Z,1009.21
2022-11-28T07:22:45.334Z,1009.17
2022-11-28T07:23:45.334Z,1009.15
2022-11-28T07:24:45.346Z,1009.15
2022-11-28T07:25:45.344Z,1009.12
2022-11-28T07:26:45.342Z,1009.15
2022-11-28T07:27:45.364Z,1009.11
2022-11-28T07:28:45.345Z,1009.09
2022-11-28T07:29:45.517Z,1009.03
2022-11-28T07:30:45.347Z,1009.08
2022-11-28T07:31:45.405Z,1009.09
2022-11-28T07:32:45.359Z,1009.10
2022-11-28T07:33:45.358Z,1009.03
2022-11-28T07:34:49.841Z,1009.01
2022-11-28T07:35:45.476Z,1008.99
2022-11-28T07:36:45.373Z,1008.96
2022-11-28T07:37:45.372Z,1008.91
2022-11-28T07:38:45.365Z,1008.91
2022-11-28T07:39:45.540Z,1008.90
2022-11-28T07:40:45.368Z,1008.89
2022-11-28T07:41:45.373Z,1008.90
2022-11-28T07:42:45.374Z,1008.84
2022-11-28T07:43:45.384Z,1008.82
2022-11-28T07:44:45.378Z,1008.85
2022-11-28T07:46:00.087Z,1008.86
2022-11-28T07:46:45.464Z,1008.83
2022-11-28T07:47:45.394Z,1008.85
2022-11-28T07:48:45.395Z,1008.84
2022-11-28T07:49:45.486Z,1008.83
2022-11-28T07:50:45.390Z,1008.82
2022-11-28T07:51:45.414Z,1008.75
2022-11-28T07:52:45.402Z,1008.80
2022-11-28T07:53:45.396Z,1008.77
2022-11-28T07:54:45.401Z,1008.82
2022-11-28T07:55:45.406Z,1008.85
2022-11-28T07:57:12.052Z,1008.80
2022-11-28T07:57:45.412Z,1008.80
2022-11-28T07:58:45.415Z,1008.84
2022-11-28T07:59:45.674Z,1008.82
2022-11-28T08:00:45.412Z,1008.88
2022-11-28T08:01:45.466Z,1008.87
2022-11-28T08:02:45.421Z,1008.88
2022-11-28T08:03:45.417Z,1008.86
2022-11-28T08:04:50.512Z,1008.86
2022-11-28T08:05:45.430Z,1008.84
2022-11-28T08:06:45.436Z,1008.86
2022-11-28T08:07:45.508Z,1008.82
2022-11-28T08:08:45.435Z,1008.83
2022-11-28T08:09:45.746Z,1008.83
2022-11-28T08:10:45.434Z,1008.83
2022-11-28T08:11:45.444Z,1008.88
2022-11-28T08:12:45.444Z,1008.84
2022-11-28T08:13:45.441Z,1008.83
2022-11-28T08:14:45.748Z,1008.89
2022-11-28T08:15:45.453Z,1008.90
2022-11-28T08:16:45.586Z,1008.85
2022-11-28T08:17:45.452Z,1008.77
2022-11-28T08:18:45.464Z,1008.80
2022-11-28T08:19:45.455Z,1008.81
2022-11-28T08:20:45.458Z,1008.79
2022-11-28T08:21:45.469Z,1008.77
2022-11-28T08:22:45.466Z,1008.80
2022-11-28T08:23:45.484Z,1008.80
2022-11-28T08:24:45.735Z,1008.82
2022-11-28T08:25:45.477Z,1008.80
2022-11-28T08:26:45.472Z,1008.84
2022-11-28T08:27:45.475Z,1008.85
2022-11-28T08:28:45.492Z,1008.84
2022-11-28T08:29:50.384Z,1008.86
2022-11-28T08:30:45.552Z,1008.84
2022-11-28T08:31:45.484Z,1008.80
2022-11-28T08:32:45.488Z,1008.89
2022-11-28T08:33:45.490Z,1008.88
2022-11-28T08:34:45.501Z,1008.86
2022-11-28T08:35:45.503Z,1008.82
2022-11-28T08:36:45.504Z,1008.85
2022-11-28T08:37:45.508Z,1008.88
2022-11-28T08:38:57.791Z,1008.86
2022-11-28T08:39:45.716Z,1008.90
2022-11-28T08:40:45.505Z,1008.84
2022-11-28T08:41:45.517Z,1008.82
2022-11-28T08:42:45.510Z,1008.89
2022-11-28T08:43:45.516Z,1008.80
2022-11-28T08:44:45.514Z,1008.82
2022-11-28T08:45:45.556Z,1008.82
2022-11-28T08:46:45.529Z,1008.83
2022-11-28T08:47:45.531Z,1008.84
2022-11-28T08:48:45.534Z,1008.83
2022-11-28T08:49:45.827Z,1008.94
2022-11-28T08:50:48.069Z,1008.92
2022-11-28T08:51:45.540Z,1008.94
2022-11-28T08:52:45.535Z,1008.95
2022-11-28T08:53:48.768Z,1008.96
2022-11-28T08:54:45.806Z,1009.01
2022-11-28T08:55:45.559Z,1009.01
2022-11-28T08:56:45.552Z,1009.04
2022-11-28T08:57:45.546Z,1009.01
2022-11-28T08:58:45.549Z,1009.08
2022-11-28T08:59:45.845Z,1009.16
2022-11-28T09:00:45.554Z,1009.23
2022-11-28T09:01:45.704Z,1009.24
2022-11-28T09:02:45.560Z,1009.36
2022-11-28T09:03:45.611Z,1009.32
2022-11-28T09:04:45.569Z,1009.35
2022-11-28T09:05:45.574Z,1009.49
2022-11-28T09:06:45.575Z,1009.46
2022-11-28T09:07:45.593Z,1009.39
2022-11-28T09:08:45.582Z,1009.47
2022-11-28T09:09:46.071Z,1009.52
2022-11-28T09:10:45.582Z,1009.48
2022-11-28T09:11:45.603Z,1009.48
2022-11-28T09:12:45.581Z,1009.50
2022-11-28T09:13:45.584Z,1009.46
2022-11-28T09:14:45.585Z,1009.44
2022-11-28T09:15:46.769Z,1009.46
2022-11-28T09:16:45.646Z,1009.47
2022-11-28T09:17:45.593Z,1009.45
2022-11-28T09:18:45.609Z,1009.41
2022-11-28T09:19:45.598Z,1009.36
2022-11-28T09:20:45.600Z,1009.35
2022-11-28T09:21:45.604Z,1009.35
2022-11-28T09:22:45.612Z,1009.32
2022-11-28T09:23:45.609Z,1009.38
2022-11-28T09:24:45.617Z,1009.36
2022-11-28T09:25:45.611Z,1009.34
2022-11-28T09:26:45.614Z,1009.39
2022-11-28T09:27:45.647Z,1009.41
2022-11-28T09:28:45.619Z,1009.39
2022-11-28T09:29:45.799Z,1009.36
2022-11-28T09:30:45.655Z,1009.31
2022-11-28T09:31:47.528Z,1009.30
2022-11-28T09:32:45.628Z,1009.30
2022-11-28T09:33:45.639Z,1009.27
2022-11-28T09:34:45.640Z,1009.23
2022-11-28T09:35:45.637Z,1009.25
2022-11-28T09:36:45.644Z,1009.24
2022-11-28T09:37:45.641Z,1009.22
2022-11-28T09:38:45.641Z,1009.21
2022-11-28T09:40:11.487Z,1009.26
2022-11-28T09:40:45.654Z,1009.21
2022-11-28T09:41:45.659Z,1009.15
2022-11-28T09:42:45.653Z,1009.15
2022-11-28T09:43:46.996Z,1009.14
2022-11-28T09:44:45.665Z,1009.14
2022-11-28T09:45:45.681Z,1009.06
2022-11-28T09:46:45.675Z,1008.99
2022-11-28T09:47:45.669Z,1008.90
2022-11-28T09:48:45.681Z,1008.89
2022-11-28T09:49:46.015Z,1008.91
2022-11-28T09:50:45.670Z,1008.84
2022-11-28T09:51:45.672Z,1008.82
2022-11-28T09:52:45.754Z,1008.78
2022-11-28T09:53:45.677Z,1008.82
2022-11-28T09:54:45.684Z,1008.82
2022-11-28T09:55:45.687Z,1008.84
2022-11-28T09:56:45.725Z,1008.83
2022-11-28T09:57:45.685Z,1008.85
2022-11-28T09:58:45.689Z,1008.84
2022-11-28T09:59:45.886Z,1008.87
2022-11-28T10:00:45.694Z,1008.86
2022-11-28T10:01:45.697Z,1008.92
2022-11-28T10:02:45.705Z,1008.95
2022-11-28T10:03:45.726Z,1008.96
2022-11-28T10:04:45.734Z,1008.99
2022-11-28T10:05:45.713Z,1008.98
2022-11-28T10:06:45.748Z,1009.01
2022-11-28T10:07:45.774Z,1009.03
2022-11-28T10:08:45.719Z,1009.08
2022-11-28T10:09:45.824Z,1009.08
2022-11-28T10:10:45.716Z,1009.02
2022-11-28T10:11:45.728Z,1008.97
2022-11-28T10:12:45.722Z,1008.91
2022-11-28T10:14:07.159Z,1008.94
2022-11-28T10:14:45.725Z,1008.87
2022-11-28T10:15:45.754Z,1008.93
2022-11-28T10:16:45.843Z,1008.98
2022-11-28T10:17:45.737Z,1008.98
2022-11-28T10:18:45.736Z,1009.04
2022-11-28T10:19:54.441Z,1009.06
2022-11-28T10:20:45.742Z,1009.06
2022-11-28T10:21:45.743Z,1009.09
2022-11-28T10:22:45.746Z,1009.11
2022-11-28T10:23:45.755Z,1009.12
2022-11-28T10:24:45.770Z,1009.16
2022-11-28T10:25:45.760Z,1009.17
2022-11-28T10:26:45.757Z,1009.20
2022-11-28T10:27:45.759Z,1009.18
2022-11-28T10:28:45.770Z,1009.18
2022-11-28T10:29:46.161Z,1009.19
2022-11-28T10:30:45.960Z,1009.15
2022-11-28T10:31:45.799Z,1009.11
2022-11-28T10:32:45.774Z,1009.13
2022-11-28T10:33:45.784Z,1009.17
2022-11-28T10:34:45.788Z,1009.17
2022-11-28T10:35:45.787Z,1009.15
2022-11-28T10:36:45.791Z,1009.21
2022-11-28T10:37:45.796Z,1009.23
2022-11-28T10:38:45.801Z,1009.26
2022-11-28T10:39:45.901Z,1009.23
2022-11-28T10:40:45.795Z,1009.22
2022-11-28T10:41:45.807Z,1009.19
2022-11-28T10:42:45.803Z,1009.14
2022-11-28T10:43:45.805Z,1009.11
2022-11-28T10:44:45.816Z,1009.10
2022-11-28T10:45:45.855Z,1009.17
2022-11-28T10:46:45.879Z,1009.12
2022-11-28T10:47:45.862Z,1009.06
2022-11-28T10:48:45.822Z,1009.01
2022-11-28T10:49:45.976Z,1009.03
2022-11-28T10:50:45.831Z,1009.02
2022-11-28T10:51:45.836Z,1009.02
2022-11-28T10:52:45.831Z,1009.01
2022-11-28T10:53:45.844Z,1009.00
2022-11-28T10:54:45.844Z,1008.98
2022-11-28T10:55:45.847Z,1008.96
2022-11-28T10:56:45.845Z,1008.94
2022-11-28T10:57:45.847Z,1008.96
2022-11-28T10:58:45.857Z,1008.93
2022-11-28T10:59:46.029Z,1008.89
2022-11-28T11:00:45.856Z,1008.87
2022-11-28T11:01:49.941Z,1008.82
2022-11-28T11:02:45.870Z,1008.77
2022-11-28T11:03:45.910Z,1008.75
2022-11-28T11:04:45.921Z,1008.79
2022-11-28T11:05:45.878Z,1008.73
2022-11-28T11:07:06.937Z,1008.74
2022-11-28T11:07:45.937Z,1008.74
2022-11-28T11:08:45.890Z,1008.74
2022-11-28T11:09:46.118Z,1008.74
2022-11-28T11:10:45.889Z,1008.75
2022-11-28T11:11:45.891Z,1008.70
2022-11-28T11:12:45.895Z,1008.73
2022-11-28T11:13:45.903Z,1008.72
2022-11-28T11:14:45.900Z,1008.70
2022-11-28T11:15:46.045Z,1008.63
2022-11-28T11:16:45.907Z,1008.62
2022-11-28T11:17:45.917Z,1008.66
2022-11-28T11:18:45.919Z,1008.63
2022-11-28T11:19:46.130Z,1008.62
2022-11-28T11:20:45.927Z,1008.62
2022-11-28T11:21:45.921Z,1008.59
2022-11-28T11:22:46.237Z,1008.57
2022-11-28T11:23:45.927Z,1008.57
2022-11-28T11:24:45.942Z,1008.60
2022-11-28T11:25:45.943Z,1008.52
2022-11-28T11:26:45.942Z,1008.49
2022-11-28T11:27:45.951Z,1008.54
2022-11-28T11:28:45.955Z,1008.51
2022-11-28T11:29:49.235Z,1008.54
2022-11-28T11:30:46.086Z,1008.52
2022-11-28T11:31:45.964Z,1008.57
2022-11-28T11:32:51.109Z,1008.51
2022-11-28T11:33:45.980Z,1008.59
2022-11-28T11:34:45.966Z,1008.57
2022-11-28T11:35:45.999Z,1008.56
2022-11-28T11:36:45.974Z,1008.56
2022-11-28T11:37:45.979Z,1008.55
2022-11-28T11:38:45.990Z,1008.53
2022-11-28T11:39:45.996Z,1008.56
2022-11-28T11:40:46.008Z,1008.58
2022-11-28T11:41:46.000Z,1008.58
2022-11-28T11:42:45.994Z,1008.57
2022-11-28T11:43:46.007Z,1008.62
2022-11-28T11:44:46.004Z,1008.56
2022-11-28T11:45:51.162Z,1008.66
2022-11-28T11:46:46.077Z,1008.66
2022-11-28T11:47:46.011Z,1008.72
2022-11-28T11:48:46.020Z,1008.69
2022-11-28T11:49:46.385Z,1008.69
2022-11-28T11:50:46.030Z,1008.75
2022-11-28T11:51:46.057Z,1008.73
2022-11-28T11:52:46.038Z,1008.71
2022-11-28T11:53:46.043Z,1008.69
2022-11-28T11:54:46.046Z,1008.67
2022-11-28T11:55:46.040Z,1008.66
2022-11-28T11:56:46.047Z,1008.71
2022-11-28T11:57:46.052Z,1008.67
2022-11-28T11:58:46.050Z,1008.65
2022-11-28T11:59:46.151Z,1008.66
2022-11-28T12:00:46.058Z,1008.64
2022-11-28T12:01:46.064Z,1008.61
2022-11-28T12:02:46.332Z,1008.60
2022-11-28T12:03:46.128Z,1008.53
2022-11-28T12:04:49.969Z,1008.50
2022-11-28T12:06:06.499Z,1008.45
2022-11-28T12:06:46.077Z,1008.42
2022-11-28T12:07:46.187Z,1008.44